createdAt,value
2017-08-14T00:02:24.458Z,4.40
2017-08-14T00:04:51.945Z,4.43
2017-08-14T00:07:19.412Z,5.10
2017-08-14T00:09:47.657Z,5.03
2017-08-14T00:12:15.148Z,4.93
2017-08-14T00:14:43.669Z,4.50
2017-08-14T00:17:11.133Z,4.53
2017-08-14T00:19:38.621Z,4.93
2017-08-14T00:22:06.090Z,5.63
2017-08-14T00:24:33.559Z,5.63
2017-08-14T00:27:02.077Z,4.67
2017-08-14T00:29:29.549Z,4.20
2017-08-14T00:31:57.017Z,5.07
2017-08-14T00:34:24.505Z,5.27
2017-08-14T00:36:52.740Z,5.37
2017-08-14T00:39:20.213Z,5.20
2017-08-14T00:41:47.705Z,4.87
2017-08-14T00:44:16.021Z,5.00
2017-08-14T00:46:43.489Z,5.20
2017-08-14T00:49:10.978Z,4.70
2017-08-14T00:51:38.448Z,5.57
2017-08-14T00:54:06.714Z,5.67
2017-08-14T00:56:35.009Z,5.27
2017-08-14T00:59:02.553Z,5.10
2017-08-14T01:01:30.832Z,5.77
2017-08-14T01:03:59.157Z,6.17
2017-08-14T01:06:26.634Z,5.67
2017-08-14T01:08:54.102Z,5.87
2017-08-14T01:11:21.589Z,5.47
2017-08-14T01:13:49.820Z,4.87
2017-08-14T01:16:17.289Z,5.60
2017-08-14T01:18:44.794Z,6.70
2017-08-14T01:21:12.265Z,6.30
2017-08-14T01:23:40.854Z,6.17
2017-08-14T01:26:08.369Z,4.70
2017-08-14T01:28:36.611Z,6.23
2017-08-14T01:31:04.085Z,5.80
2017-08-14T01:33:31.572Z,5.00
2017-08-14T01:35:59.364Z,5.10
2017-08-14T01:38:27.125Z,5.00
2017-08-14T01:40:54.699Z,5.13
2017-08-14T01:43:22.168Z,5.77
2017-08-14T01:45:49.668Z,5.73
2017-08-14T01:48:18.337Z,5.60
2017-08-14T01:50:46.585Z,6.30
2017-08-14T01:53:14.053Z,5.60
2017-08-14T01:55:41.545Z,5.50
2017-08-14T01:58:09.016Z,4.90
2017-08-14T02:00:36.486Z,6.07
2017-08-14T02:03:04.000Z,5.80
2017-08-14T02:05:32.237Z,6.60
2017-08-14T02:07:59.726Z,5.17
2017-08-14T02:10:27.221Z,7.70
2017-08-14T02:12:54.692Z,6.17
2017-08-14T02:15:22.161Z,5.80
2017-08-14T02:17:49.664Z,5.70
2017-08-14T02:20:17.901Z,5.87
2017-08-14T02:22:45.370Z,5.40
2017-08-14T02:25:12.862Z,5.57
2017-08-14T02:27:41.097Z,6.33
2017-08-14T02:30:08.565Z,5.20
2017-08-14T02:32:36.056Z,5.77
2017-08-14T02:35:04.570Z,5.70
2017-08-14T02:37:32.079Z,6.03
2017-08-14T02:40:00.357Z,6.60
2017-08-14T02:42:30.033Z,5.30
2017-08-14T02:44:57.501Z,6.80
2017-08-14T02:47:24.997Z,5.30
2017-08-14T02:49:52.469Z,6.20
2017-08-14T02:52:20.036Z,6.40
2017-08-14T02:54:47.528Z,6.30
2017-08-14T02:57:14.997Z,4.93
2017-08-14T02:59:42.470Z,5.97
2017-08-14T03:02:10.729Z,5.67
2017-08-14T03:04:38.197Z,5.00
2017-08-14T03:07:06.440Z,6.20
2017-08-14T03:09:33.929Z,6.13
2017-08-14T03:12:02.166Z,5.77
2017-08-14T03:14:29.646Z,5.90
2017-08-14T03:16:57.153Z,4.73
2017-08-14T03:19:24.626Z,6.20
2017-08-14T03:21:52.101Z,6.13
2017-08-14T03:24:19.588Z,5.97
2017-08-14T03:26:47.057Z,6.17
2017-08-14T03:29:15.292Z,5.37
2017-08-14T03:31:42.780Z,6.10
2017-08-14T03:34:11.017Z,5.20
2017-08-14T03:36:38.489Z,5.33
2017-08-14T03:39:05.985Z,6.23
2017-08-14T03:41:34.221Z,5.20
2017-08-14T03:44:01.693Z,6.43
2017-08-14T03:46:29.185Z,6.27
2017-08-14T03:48:56.653Z,6.47
2017-08-14T03:51:24.125Z,4.47
2017-08-14T03:53:51.937Z,5.13
2017-08-14T03:56:20.181Z,6.70
2017-08-14T03:58:47.650Z,5.60
2017-08-14T04:01:15.144Z,5.77
2017-08-14T04:03:42.613Z,5.97
2017-08-14T04:06:10.085Z,5.20
2017-08-14T04:08:37.577Z,4.90
2017-08-14T04:11:05.045Z,6.33
2017-08-14T04:13:32.513Z,5.90
2017-08-14T04:16:00.937Z,5.57
2017-08-14T04:18:28.410Z,7.07
2017-08-14T04:20:55.878Z,6.30
2017-08-14T04:23:23.385Z,5.83
2017-08-14T04:25:50.929Z,5.60
2017-08-14T04:28:19.170Z,5.40
2017-08-14T04:30:46.661Z,6.23
2017-08-14T04:33:14.897Z,5.50
2017-08-14T04:35:42.368Z,5.33
2017-08-14T04:38:10.301Z,5.93
2017-08-14T04:40:37.773Z,6.17
2017-08-14T04:43:05.244Z,6.03
2017-08-14T04:45:32.732Z,5.70
2017-08-14T04:48:00.973Z,6.13
2017-08-14T04:50:28.440Z,5.63
2017-08-14T04:52:56.065Z,6.80
2017-08-14T04:55:23.533Z,5.77
2017-08-14T04:57:51.000Z,6.60
2017-08-14T05:00:18.489Z,6.00
2017-08-14T05:02:46.793Z,6.00
2017-08-14T05:05:14.265Z,6.13
2017-08-14T05:07:41.761Z,7.60
2017-08-14T05:10:09.229Z,5.20
2017-08-14T05:12:36.696Z,5.00
2017-08-14T05:15:04.995Z,5.23
2017-08-14T05:17:32.503Z,4.77
2017-08-14T05:19:59.978Z,5.80
2017-08-14T05:22:27.476Z,5.10
2017-08-14T05:24:54.952Z,4.60
2017-08-14T05:27:22.425Z,4.43
2017-08-14T05:29:49.916Z,4.80
2017-08-14T05:32:18.153Z,4.33
2017-08-14T05:34:45.620Z,4.60
2017-08-14T05:37:13.109Z,4.00
2017-08-14T05:39:41.340Z,4.30
2017-08-14T05:42:08.817Z,4.30
2017-08-14T05:44:36.305Z,4.63
2017-08-14T05:47:03.778Z,3.93
2017-08-14T05:49:31.254Z,4.47
2017-08-14T05:51:58.752Z,3.60
2017-08-14T05:54:26.224Z,3.60
2017-08-14T05:56:54.469Z,3.10
2017-08-14T05:59:22.097Z,3.70
2017-08-14T06:01:49.569Z,4.20
2017-08-14T06:04:17.044Z,3.90
2017-08-14T06:06:44.540Z,4.00
2017-08-14T06:09:12.008Z,4.17
2017-08-14T06:11:39.481Z,3.27
2017-08-14T06:14:06.976Z,3.77
2017-08-14T06:16:34.449Z,3.70
2017-08-14T06:19:01.917Z,3.80
2017-08-14T06:21:30.184Z,3.80
2017-08-14T06:23:57.661Z,3.97
2017-08-14T06:26:25.141Z,2.57
2017-08-14T06:28:52.642Z,3.03
2017-08-14T06:31:20.118Z,3.30
2017-08-14T06:33:48.365Z,3.20
2017-08-14T06:36:15.853Z,4.13
2017-08-14T06:38:43.326Z,3.40
2017-08-14T06:41:10.797Z,3.80
2017-08-14T06:43:38.288Z,3.50
2017-08-14T06:46:05.761Z,3.70
2017-08-14T06:48:33.228Z,2.90
2017-08-14T06:51:00.949Z,3.17
2017-08-14T06:53:28.420Z,3.10
2017-08-14T06:55:55.890Z,3.33
2017-08-14T06:58:23.725Z,3.33
2017-08-14T07:00:51.237Z,3.57
2017-08-14T07:03:19.473Z,3.03
2017-08-14T07:05:46.967Z,2.90
2017-08-14T07:08:15.205Z,3.10
2017-08-14T07:10:42.686Z,2.87
2017-08-14T07:13:10.199Z,2.10
2017-08-14T07:15:37.673Z,2.07
2017-08-14T07:18:05.158Z,2.80
2017-08-14T07:20:32.881Z,3.07
2017-08-14T07:23:00.355Z,2.90
2017-08-14T07:25:28.042Z,2.37
2017-08-14T07:27:55.546Z,2.57
2017-08-14T07:30:23.321Z,2.40
2017-08-14T07:32:50.805Z,2.70
2017-08-14T07:35:18.296Z,2.70
2017-08-14T07:37:46.533Z,2.50
2017-08-14T07:40:14.013Z,2.17
2017-08-14T07:42:41.504Z,1.83
2017-08-14T07:45:08.992Z,2.40
2017-08-14T07:47:36.465Z,2.37
2017-08-14T07:50:03.965Z,2.40
2017-08-14T07:52:32.204Z,2.60
2017-08-14T07:54:59.672Z,3.17
2017-08-14T07:57:27.162Z,2.00
2017-08-14T07:59:54.639Z,3.23
2017-08-14T08:02:22.110Z,2.23
2017-08-14T08:04:49.601Z,2.80
2017-08-14T08:07:17.072Z,2.53
2017-08-14T08:09:45.312Z,2.40
2017-08-14T08:12:12.797Z,1.80
2017-08-14T08:14:41.037Z,2.37
2017-08-14T08:17:08.511Z,2.50
2017-08-14T08:19:36.001Z,2.10
2017-08-14T08:22:04.242Z,2.43
2017-08-14T08:24:31.756Z,2.00
2017-08-14T08:26:59.473Z,1.73
2017-08-14T08:29:26.943Z,1.90
2017-08-14T08:31:55.177Z,2.00
2017-08-14T08:34:22.669Z,1.40
2017-08-14T08:36:50.141Z,1.40
2017-08-14T08:39:17.609Z,1.77
2017-08-14T08:41:45.109Z,1.63
2017-08-14T08:44:12.584Z,2.10
2017-08-14T08:46:40.060Z,2.07
2017-08-14T08:49:08.319Z,1.67
2017-08-14T08:51:35.792Z,1.60
2017-08-14T08:54:04.030Z,2.10
2017-08-14T08:56:31.521Z,1.50
2017-08-14T08:58:58.992Z,1.47
2017-08-14T09:01:27.229Z,1.30
2017-08-14T09:03:54.721Z,1.60
2017-08-14T09:06:22.961Z,1.60
2017-08-14T09:08:50.449Z,1.30
2017-08-14T09:11:18.709Z,1.50
2017-08-14T09:13:46.181Z,1.60
2017-08-14T09:16:13.649Z,1.47
2017-08-14T09:18:41.905Z,1.50
2017-08-14T09:21:09.380Z,1.33
2017-08-14T09:23:37.070Z,1.40
2017-08-14T09:26:04.581Z,1.40
2017-08-14T09:28:32.049Z,1.47
2017-08-14T09:31:00.577Z,1.40
2017-08-14T09:33:28.065Z,1.33
2017-08-14T09:35:55.577Z,1.57
2017-08-14T09:38:23.053Z,0.90
2017-08-14T09:40:50.552Z,1.50
2017-08-14T09:43:18.022Z,1.63
2017-08-14T09:45:46.300Z,1.70
2017-08-14T09:48:14.570Z,1.70
2017-08-14T09:50:42.041Z,1.40
2017-08-14T09:53:09.513Z,1.77
2017-08-14T09:55:37.005Z,2.03
2017-08-14T09:58:04.478Z,1.83
2017-08-14T10:00:31.950Z,1.30
2017-08-14T10:02:59.441Z,1.63
2017-08-14T10:05:26.921Z,1.40
2017-08-14T10:07:54.396Z,1.20
2017-08-14T10:10:21.892Z,1.97
2017-08-14T10:12:49.381Z,1.23
2017-08-14T10:15:16.853Z,2.17
2017-08-14T10:17:44.709Z,2.30
2017-08-14T10:20:12.185Z,1.20
2017-08-14T10:22:39.877Z,1.30
2017-08-14T10:25:07.391Z,1.90
2017-08-14T10:27:34.865Z,1.30
2017-08-14T10:30:02.338Z,1.40
2017-08-14T10:32:29.833Z,1.40
2017-08-14T10:34:57.306Z,1.37
2017-08-14T10:37:24.781Z,1.50
2017-08-14T10:39:52.273Z,1.87
2017-08-14T10:42:19.745Z,1.60
2017-08-14T10:44:47.982Z,1.77
2017-08-14T10:47:15.473Z,1.90
2017-08-14T10:49:43.926Z,2.03
2017-08-14T10:52:11.393Z,1.10
2017-08-14T10:54:39.217Z,1.40
2017-08-14T10:57:06.701Z,1.63
2017-08-14T10:59:34.173Z,1.60
2017-08-14T11:02:01.666Z,1.40
2017-08-14T11:04:29.144Z,1.30
2017-08-14T11:06:56.618Z,1.67
2017-08-14T11:09:24.109Z,1.27
2017-08-14T11:11:52.350Z,1.50
2017-08-14T11:14:19.822Z,1.60
2017-08-14T11:16:47.318Z,1.37
2017-08-14T11:19:14.788Z,1.57
2017-08-14T11:21:42.258Z,1.50
2017-08-14T11:24:09.749Z,1.20
2017-08-14T11:26:37.237Z,1.23
2017-08-14T11:29:05.474Z,1.47
2017-08-14T11:31:32.967Z,1.20
2017-08-14T11:34:01.210Z,1.20
2017-08-14T11:36:28.854Z,1.10
2017-08-14T11:38:56.349Z,1.80
2017-08-14T11:41:23.820Z,1.43
2017-08-14T11:43:52.341Z,1.93
2017-08-14T11:46:19.845Z,1.50
2017-08-14T11:48:47.317Z,1.30
2017-08-14T11:51:14.792Z,1.13
2017-08-14T11:53:42.285Z,1.50
2017-08-14T11:56:09.757Z,1.30
2017-08-14T11:58:37.289Z,1.40
2017-08-14T12:01:04.782Z,1.30
2017-08-14T12:03:32.261Z,1.20
2017-08-14T12:06:00.540Z,1.60
2017-08-14T12:08:28.797Z,1.50
2017-08-14T12:10:56.266Z,1.40
2017-08-14T12:13:24.508Z,1.60
2017-08-14T12:15:52.002Z,1.50
2017-08-14T12:18:20.237Z,1.47
2017-08-14T12:20:47.709Z,1.27
2017-08-14T12:23:15.509Z,1.57
2017-08-14T12:25:42.977Z,1.67
2017-08-14T12:28:10.461Z,1.83
2017-08-14T12:30:37.980Z,1.40
2017-08-14T12:33:05.457Z,1.50
2017-08-14T12:35:32.930Z,1.30
2017-08-14T12:38:00.420Z,1.40
2017-08-14T12:40:27.889Z,1.20
2017-08-14T12:42:56.225Z,1.77
2017-08-14T12:45:23.766Z,1.43
2017-08-14T12:47:51.261Z,1.40
2017-08-14T12:50:18.737Z,1.80
2017-08-14T12:52:46.612Z,1.40
2017-08-14T12:55:14.850Z,1.60
2017-08-14T12:57:42.500Z,1.43
2017-08-14T13:00:10.005Z,1.70
2017-08-14T13:02:38.245Z,1.70
2017-08-14T13:05:05.708Z,1.60
2017-08-14T13:07:33.201Z,1.77
2017-08-14T13:10:01.437Z,1.50
2017-08-14T13:12:28.909Z,1.60
2017-08-14T13:14:56.417Z,1.50
2017-08-14T13:17:23.890Z,1.83
2017-08-14T13:19:51.365Z,2.37
2017-08-14T13:22:18.861Z,1.80
2017-08-14T13:24:47.105Z,2.33
2017-08-14T13:27:14.578Z,2.00
2017-08-14T13:29:42.074Z,2.13
2017-08-14T13:32:09.549Z,1.80
2017-08-14T13:34:37.049Z,2.13
2017-08-14T13:37:04.541Z,1.93
2017-08-14T13:39:32.017Z,2.00
2017-08-14T13:41:59.501Z,2.07
2017-08-14T13:44:27.010Z,2.00
2017-08-14T13:46:54.502Z,1.83
2017-08-14T13:49:21.986Z,2.07
2017-08-14T13:51:49.481Z,2.40
2017-08-14T13:54:16.966Z,1.80
2017-08-14T13:56:44.432Z,1.80
2017-08-14T13:59:11.929Z,2.00
2017-08-14T14:01:40.174Z,2.00
2017-08-14T14:04:07.645Z,2.20
2017-08-14T14:06:35.145Z,1.57
2017-08-14T14:09:02.653Z,2.10
2017-08-14T14:11:30.125Z,1.77
2017-08-14T14:13:57.626Z,2.40
2017-08-14T14:16:25.131Z,1.70
2017-08-14T14:18:52.640Z,1.80
2017-08-14T14:21:20.170Z,1.83
2017-08-14T14:23:48.413Z,2.07
2017-08-14T14:26:15.890Z,2.00
2017-08-14T14:28:43.390Z,2.47
2017-08-14T14:31:10.861Z,2.00
2017-08-14T14:33:38.630Z,1.93
2017-08-14T14:36:06.178Z,2.23
2017-08-14T14:38:33.687Z,1.77
2017-08-14T14:41:01.199Z,1.93
2017-08-14T14:43:28.742Z,2.50
2017-08-14T14:45:56.527Z,2.13
2017-08-14T14:48:24.271Z,2.10
2017-08-14T14:50:52.050Z,2.07
2017-08-14T14:53:19.562Z,2.07
2017-08-14T14:55:47.835Z,1.87
2017-08-14T14:58:16.134Z,1.90
2017-08-14T15:00:43.637Z,1.70
2017-08-14T15:03:11.145Z,1.83
2017-08-14T15:05:38.637Z,2.10
2017-08-14T15:08:06.121Z,3.03
2017-08-14T15:10:33.598Z,1.73
2017-08-14T15:13:01.114Z,2.33
2017-08-14T15:15:28.581Z,1.70
2017-08-14T15:17:56.317Z,1.83
2017-08-14T15:20:23.852Z,1.90
2017-08-14T15:22:51.323Z,1.70
2017-08-14T15:25:18.797Z,2.07
2017-08-14T15:27:46.298Z,2.47
2017-08-14T15:30:13.765Z,2.03
2017-08-14T15:32:41.285Z,2.27
2017-08-14T15:35:08.782Z,1.80
2017-08-14T15:37:37.017Z,2.17
2017-08-14T15:40:04.497Z,1.90
2017-08-14T15:42:31.993Z,2.10
2017-08-14T15:44:59.461Z,2.13
2017-08-14T15:47:26.929Z,1.53
2017-08-14T15:49:54.425Z,1.93
2017-08-14T15:52:21.893Z,1.70
2017-08-14T15:54:49.371Z,1.90
2017-08-14T15:57:16.866Z,2.10
2017-08-14T15:59:44.334Z,2.07
2017-08-14T16:02:11.809Z,1.93
2017-08-14T16:04:39.305Z,2.20
2017-08-14T16:07:06.773Z,2.20
2017-08-14T16:09:34.245Z,2.00
2017-08-14T16:12:01.737Z,1.70
2017-08-14T16:14:29.209Z,2.00
2017-08-14T16:16:56.677Z,1.90
2017-08-14T16:19:35.925Z,1.80
2017-08-14T16:22:03.394Z,1.90
2017-08-14T16:24:30.869Z,1.57
2017-08-14T16:26:58.364Z,1.50
2017-08-14T16:29:25.834Z,1.47
2017-08-14T16:31:53.305Z,1.93
2017-08-14T16:34:20.797Z,2.30
2017-08-14T16:36:48.267Z,2.13
2017-08-14T16:39:15.749Z,2.23
2017-08-14T16:41:44.009Z,1.90
2017-08-14T16:44:11.479Z,2.17
2017-08-14T16:46:38.951Z,1.77
2017-08-14T16:49:07.206Z,1.97
2017-08-14T16:51:34.673Z,1.87
2017-08-14T16:54:02.910Z,1.90
2017-08-14T16:56:30.413Z,2.03
2017-08-14T16:58:58.649Z,1.90
2017-08-14T17:01:26.121Z,2.03
2017-08-14T17:03:53.619Z,2.20
2017-08-14T17:06:21.087Z,2.17
2017-08-14T17:08:48.557Z,2.00
2017-08-14T17:11:16.095Z,2.60
2017-08-14T17:13:43.577Z,1.93
2017-08-14T17:16:11.054Z,1.90
2017-08-14T17:18:38.549Z,1.93
2017-08-14T17:21:06.793Z,1.97
2017-08-14T17:23:34.266Z,2.30
2017-08-14T17:26:02.540Z,2.33
2017-08-14T17:28:30.993Z,2.40
2017-08-14T17:30:58.462Z,3.23
2017-08-14T17:33:25.957Z,2.27
2017-08-14T17:35:53.440Z,2.20
2017-08-14T17:38:20.917Z,3.10
2017-08-14T17:40:48.478Z,3.37
2017-08-14T17:43:16.026Z,3.40
2017-08-14T17:45:44.334Z,4.03
2017-08-14T17:48:11.844Z,2.50
2017-08-14T17:50:39.625Z,3.07
2017-08-14T17:53:07.104Z,2.87
2017-08-14T17:55:34.598Z,2.70
2017-08-14T17:58:03.429Z,3.50
2017-08-14T18:00:30.927Z,3.50
2017-08-14T18:02:59.190Z,3.33
2017-08-14T18:05:26.681Z,2.53
2017-08-14T18:07:54.154Z,2.97
2017-08-14T18:10:21.649Z,2.80
2017-08-14T18:12:49.123Z,4.07
2017-08-14T18:15:17.375Z,4.30
2017-08-14T18:17:44.865Z,2.83
2017-08-14T18:20:13.199Z,2.80
2017-08-14T18:22:40.717Z,2.50
2017-08-14T18:25:08.209Z,2.67
2017-08-14T18:27:35.682Z,2.20
2017-08-14T18:30:03.169Z,3.00
2017-08-14T18:32:31.439Z,2.53
2017-08-14T18:34:58.913Z,2.90
2017-08-14T18:37:27.146Z,2.60
2017-08-14T18:39:54.713Z,3.87
2017-08-14T18:42:22.217Z,3.40
2017-08-14T18:44:49.786Z,2.50
2017-08-14T18:47:17.294Z,3.70
2017-08-14T18:49:44.769Z,3.87
2017-08-14T18:52:13.298Z,6.03
2017-08-14T18:54:40.794Z,3.90
2017-08-14T18:57:08.265Z,2.73
2017-08-14T18:59:36.501Z,3.27
2017-08-14T19:02:04.009Z,3.00
2017-08-14T19:04:32.245Z,2.97
2017-08-14T19:06:59.717Z,2.73
2017-08-14T19:09:28.178Z,2.70
2017-08-14T19:11:54.725Z,2.87
2017-08-14T19:14:22.203Z,3.30
2017-08-14T19:16:50.469Z,4.00
2017-08-14T19:19:18.711Z,3.13
2017-08-14T19:21:46.362Z,3.77
2017-08-14T19:24:13.853Z,3.03
2017-08-14T19:26:41.322Z,3.37
2017-08-14T19:29:09.560Z,2.90
2017-08-14T19:31:37.085Z,3.40
2017-08-14T19:34:04.557Z,3.97
2017-08-14T19:36:32.325Z,2.30
2017-08-14T19:38:59.879Z,2.70
2017-08-14T19:41:27.353Z,3.37
2017-08-14T19:43:54.825Z,3.00
2017-08-14T19:46:22.334Z,2.93
2017-08-14T19:48:51.347Z,2.10
2017-08-14T19:51:19.148Z,3.23
2017-08-14T19:53:46.889Z,2.63
2017-08-14T19:56:14.489Z,3.20
2017-08-14T19:58:42.813Z,2.90
2017-08-14T20:01:10.318Z,3.13
2017-08-14T20:03:37.785Z,3.00
2017-08-14T20:06:06.022Z,3.07
2017-08-14T20:08:33.513Z,2.57
2017-08-14T20:11:01.751Z,2.80
2017-08-14T20:13:29.258Z,2.10
2017-08-14T20:15:57.513Z,3.10
2017-08-14T20:18:25.004Z,3.23
2017-08-14T20:20:52.469Z,2.50
2017-08-14T20:23:19.956Z,2.40
2017-08-14T20:25:47.425Z,3.00
2017-08-14T20:28:14.902Z,2.60
2017-08-14T20:30:43.173Z,1.90
2017-08-14T20:33:10.645Z,2.57
2017-08-14T20:35:38.881Z,2.63
2017-08-14T20:38:07.161Z,2.87
2017-08-14T20:40:34.629Z,2.90
2017-08-14T20:43:02.102Z,2.97
2017-08-14T20:45:30.361Z,4.83
2017-08-14T20:47:57.838Z,2.80
2017-08-14T20:50:26.881Z,3.27
2017-08-14T20:52:54.422Z,2.23
2017-08-14T20:55:21.900Z,2.83
2017-08-14T20:57:49.372Z,4.20
2017-08-14T21:00:16.873Z,2.87
2017-08-14T21:02:45.108Z,2.53
2017-08-14T21:05:12.582Z,2.60
2017-08-14T21:07:40.077Z,2.23
2017-08-14T21:10:07.560Z,3.10
2017-08-14T21:12:35.033Z,3.00
2017-08-14T21:15:02.521Z,2.30
2017-08-14T21:17:30.762Z,4.00
2017-08-14T21:19:58.242Z,2.97
2017-08-14T21:22:25.801Z,3.23
2017-08-14T21:24:53.314Z,2.60
2017-08-14T21:27:20.947Z,2.37
2017-08-14T21:29:48.445Z,2.60
2017-08-14T21:32:15.918Z,2.30
2017-08-14T21:34:43.393Z,2.10
2017-08-14T21:37:10.888Z,2.70
2017-08-14T21:39:38.372Z,2.10
2017-08-14T21:42:05.865Z,2.40
2017-08-14T21:44:33.433Z,2.23
2017-08-14T21:47:01.688Z,2.67
2017-08-14T21:49:29.179Z,3.90
2017-08-14T21:51:57.434Z,3.47
2017-08-14T21:54:25.002Z,3.60
2017-08-14T21:56:52.493Z,3.17
2017-08-14T21:59:20.017Z,3.27
2017-08-14T22:01:48.253Z,2.50
2017-08-14T22:04:15.724Z,2.30
2017-08-14T22:06:43.213Z,2.93
2017-08-14T22:09:11.449Z,3.00
2017-08-14T22:11:38.947Z,2.47
2017-08-14T22:14:07.213Z,3.20
2017-08-14T22:16:35.453Z,3.23
2017-08-14T22:19:02.925Z,3.00
2017-08-14T22:21:30.417Z,2.93
2017-08-14T22:23:57.889Z,2.77
2017-08-14T22:26:25.356Z,3.60
2017-08-14T22:28:52.854Z,2.87
2017-08-14T22:31:20.325Z,2.60
2017-08-14T22:33:48.564Z,3.10
2017-08-14T22:36:16.057Z,2.80
2017-08-14T22:38:43.525Z,2.70
2017-08-14T22:41:11.016Z,2.43
2017-08-14T22:43:38.517Z,2.73
2017-08-14T22:46:05.989Z,2.70
2017-08-14T22:48:34.225Z,2.90
2017-08-14T22:51:01.713Z,3.70
2017-08-14T22:53:29.189Z,2.50
2017-08-14T22:55:57.429Z,2.70
2017-08-14T22:58:24.925Z,3.27
2017-08-14T23:00:53.161Z,3.10
2017-08-14T23:03:20.632Z,3.50
2017-08-14T23:05:48.353Z,3.37
2017-08-14T23:08:15.822Z,2.93
2017-08-14T23:10:43.292Z,3.30
2017-08-14T23:13:10.797Z,2.70
2017-08-14T23:15:38.268Z,2.90
2017-08-14T23:18:05.797Z,2.73
2017-08-14T23:20:34.057Z,3.67
2017-08-14T23:23:01.777Z,2.97
2017-08-14T23:25:29.248Z,3.73
2017-08-14T23:27:56.744Z,4.00
2017-08-14T23:30:24.985Z,3.67
2017-08-14T23:32:52.457Z,3.70
2017-08-14T23:35:19.949Z,3.40
2017-08-14T23:37:48.190Z,3.40
2017-08-14T23:40:15.662Z,3.37
2017-08-14T23:42:43.169Z,4.20
2017-08-14T23:45:10.645Z,4.00
2017-08-14T23:47:38.113Z,4.60
2017-08-14T23:50:05.604Z,3.87
2017-08-14T23:52:33.841Z,3.47
2017-08-14T23:55:01.313Z,4.20
2017-08-14T23:57:28.808Z,3.37
2017-08-14T23:59:56.297Z,4.30
